createdAt,value
2018-12-07T00:00:34.332Z,89.20
2018-12-07T00:03:02.879Z,89.10
2018-12-07T00:05:31.758Z,89.20
2018-12-07T00:08:00.322Z,89.20
2018-12-07T00:10:29.234Z,89.10
2018-12-07T00:12:57.766Z,89.10
2018-12-07T00:15:26.322Z,89.10
2018-12-07T00:17:54.898Z,89.10
2018-12-07T00:20:23.434Z,89.20
2018-12-07T00:22:52.057Z,89.20
2018-12-07T00:25:21.027Z,89.10
2018-12-07T00:27:49.575Z,89.10
2018-12-07T00:30:18.128Z,89.00
2018-12-07T00:32:46.800Z,88.90
2018-12-07T00:35:15.411Z,88.90
2018-12-07T00:37:43.963Z,88.90
2018-12-07T00:40:12.600Z,89.00
2018-12-07T00:42:41.186Z,89.10
2018-12-07T00:45:09.744Z,89.10
2018-12-07T00:47:39.137Z,89.10
2018-12-07T00:50:07.802Z,89.20
2018-12-07T00:52:36.642Z,89.20
2018-12-07T00:55:07.449Z,89.20
2018-12-07T00:57:35.966Z,89.30
2018-12-07T01:00:04.913Z,89.30
2018-12-07T01:02:33.453Z,89.40
2018-12-07T01:05:01.991Z,89.40
2018-12-07T01:07:30.530Z,89.30
2018-12-07T01:09:59.062Z,89.30
2018-12-07T01:12:27.705Z,89.30
2018-12-07T01:14:56.259Z,89.30
2018-12-07T01:17:24.942Z,89.30
2018-12-07T01:19:53.779Z,89.20
2018-12-07T01:22:22.318Z,89.20
2018-12-07T01:24:52.113Z,89.10
2018-12-07T01:27:20.658Z,89.00
2018-12-07T01:29:49.193Z,89.00
2018-12-07T01:32:17.756Z,88.90
2018-12-07T01:34:46.350Z,88.90
2018-12-07T01:37:14.896Z,88.90
2018-12-07T01:39:43.696Z,88.90
2018-12-07T01:42:13.759Z,88.90
2018-12-07T01:44:42.471Z,88.90
2018-12-07T01:47:11.071Z,88.90
2018-12-07T01:49:39.606Z,88.80
2018-12-07T01:52:08.139Z,88.80
2018-12-07T01:54:36.711Z,88.60
2018-12-07T01:57:06.495Z,88.60
2018-12-07T01:59:35.310Z,88.70
2018-12-07T02:02:04.386Z,88.60
2018-12-07T02:04:33.258Z,88.70
2018-12-07T02:07:01.802Z,88.70
2018-12-07T02:09:30.500Z,88.60
2018-12-07T02:11:59.050Z,88.60
2018-12-07T02:14:27.567Z,88.70
2018-12-07T02:16:56.129Z,88.70
2018-12-07T02:19:24.799Z,88.70
2018-12-07T02:21:53.474Z,88.70
2018-12-07T02:24:22.334Z,88.70
2018-12-07T02:26:50.894Z,88.70
2018-12-07T02:29:19.648Z,88.70
2018-12-07T02:31:48.215Z,88.60
2018-12-07T02:34:16.758Z,88.70
2018-12-07T02:36:45.315Z,88.60
2018-12-07T02:39:13.888Z,88.60
2018-12-07T02:41:42.550Z,88.50
2018-12-07T02:44:11.125Z,88.50
2018-12-07T02:46:39.693Z,88.50
2018-12-07T02:49:08.251Z,88.50
2018-12-07T02:51:36.785Z,88.60
2018-12-07T02:54:05.366Z,88.50
2018-12-07T02:56:33.900Z,88.60
2018-12-07T02:59:02.422Z,88.60
2018-12-07T03:01:30.959Z,88.50
2018-12-07T03:03:59.517Z,88.60
2018-12-07T03:06:28.055Z,88.60
2018-12-07T03:08:56.611Z,88.60
2018-12-07T03:11:25.143Z,88.60
2018-12-07T03:13:53.766Z,88.50
2018-12-07T03:16:22.412Z,88.50
2018-12-07T03:18:50.987Z,88.50
2018-12-07T03:21:19.544Z,88.50
2018-12-07T03:23:48.471Z,88.50
2018-12-07T03:26:17.002Z,88.60
2018-12-07T03:28:45.832Z,88.60
2018-12-07T03:31:14.403Z,88.70
2018-12-07T03:33:42.934Z,88.70
2018-12-07T03:36:11.488Z,89.30
2018-12-07T03:38:40.370Z,88.60
2018-12-07T03:41:08.971Z,88.50
2018-12-07T03:43:37.504Z,88.50
2018-12-07T03:46:06.077Z,88.60
2018-12-07T03:48:34.640Z,88.50
2018-12-07T03:51:03.209Z,88.50
2018-12-07T03:53:31.792Z,88.50
2018-12-07T03:56:01.440Z,88.50
2018-12-07T03:58:29.983Z,88.50
2018-12-07T04:00:58.762Z,88.40
2018-12-07T04:03:27.295Z,88.40
2018-12-07T04:05:55.859Z,88.40
2018-12-07T04:08:24.410Z,88.40
2018-12-07T04:10:52.927Z,88.40
2018-12-07T04:13:21.547Z,88.40
2018-12-07T04:15:50.235Z,88.40
2018-12-07T04:18:18.780Z,88.30
2018-12-07T04:20:47.439Z,88.40
2018-12-07T04:23:15.997Z,88.40
2018-12-07T04:25:44.549Z,88.40
2018-12-07T04:28:13.084Z,88.40
2018-12-07T04:30:41.626Z,88.30
2018-12-07T04:33:10.163Z,88.30
2018-12-07T04:35:38.731Z,88.30
2018-12-07T04:38:07.579Z,88.20
2018-12-07T04:40:36.178Z,88.30
2018-12-07T04:43:05.053Z,88.40
2018-12-07T04:45:33.780Z,88.30
2018-12-07T04:48:02.372Z,88.30
2018-12-07T04:50:30.928Z,88.40
2018-12-07T04:52:59.738Z,88.40
2018-12-07T04:55:28.316Z,88.40
2018-12-07T04:57:57.256Z,88.40
2018-12-07T05:00:25.973Z,88.30
2018-12-07T05:02:54.666Z,88.30
2018-12-07T05:05:23.300Z,88.30
2018-12-07T05:07:52.619Z,88.20
2018-12-07T05:10:21.628Z,88.20
2018-12-07T05:12:50.283Z,88.20
2018-12-07T05:15:19.397Z,88.20
2018-12-07T05:17:48.026Z,88.20
2018-12-07T05:20:17.599Z,88.20
2018-12-07T05:22:46.286Z,88.20
2018-12-07T05:25:15.183Z,88.10
2018-12-07T05:27:43.793Z,88.10
2018-12-07T05:30:12.362Z,88.00
2018-12-07T05:32:40.976Z,88.00
2018-12-07T05:35:09.550Z,88.00
2018-12-07T05:37:38.112Z,88.10
2018-12-07T05:40:06.917Z,88.00
2018-12-07T05:42:35.496Z,87.90
2018-12-07T05:45:04.730Z,87.90
2018-12-07T05:47:33.411Z,87.70
2018-12-07T05:50:08.494Z,87.80
2018-12-07T05:52:37.164Z,87.60
2018-12-07T05:55:05.990Z,87.60
2018-12-07T05:57:34.549Z,87.60
2018-12-07T06:00:04.389Z,87.60
2018-12-07T06:02:32.983Z,87.60
2018-12-07T06:05:01.541Z,87.50
2018-12-07T06:07:30.086Z,87.60
2018-12-07T06:09:58.859Z,87.60
2018-12-07T06:12:27.399Z,87.60
2018-12-07T06:14:55.922Z,87.60
2018-12-07T06:17:24.488Z,87.60
2018-12-07T06:19:53.034Z,87.60
2018-12-07T06:22:21.599Z,87.50
2018-12-07T06:24:50.174Z,87.40
2018-12-07T06:27:18.858Z,87.40
2018-12-07T06:29:47.403Z,87.20
2018-12-07T06:32:15.962Z,87.20
2018-12-07T06:34:44.505Z,87.10
2018-12-07T06:37:13.062Z,87.30
2018-12-07T06:39:41.616Z,87.40
2018-12-07T06:42:10.150Z,87.40
2018-12-07T06:44:38.678Z,87.40
2018-12-07T06:47:07.356Z,87.40
2018-12-07T06:49:35.912Z,87.40
2018-12-07T06:52:04.515Z,87.30
2018-12-07T06:54:33.046Z,87.20
2018-12-07T06:57:01.602Z,87.20
2018-12-07T06:59:30.118Z,87.30
2018-12-07T07:01:58.658Z,87.30
2018-12-07T07:04:27.191Z,87.20
2018-12-07T07:06:55.722Z,87.20
2018-12-07T07:09:24.250Z,87.20
2018-12-07T07:11:52.792Z,87.10
2018-12-07T07:14:21.330Z,87.00
2018-12-07T07:16:49.914Z,86.90
2018-12-07T07:19:18.459Z,86.90
2018-12-07T07:21:47.105Z,86.80
2018-12-07T07:24:15.686Z,86.60
2018-12-07T07:26:44.225Z,86.50
2018-12-07T07:29:12.774Z,86.50
2018-12-07T07:31:43.533Z,86.50
2018-12-07T07:34:11.895Z,86.40
2018-12-07T07:36:40.450Z,86.30
2018-12-07T07:39:08.973Z,86.30
2018-12-07T07:41:37.559Z,86.20
2018-12-07T07:44:06.119Z,86.10
2018-12-07T07:46:34.721Z,85.80
2018-12-07T07:49:03.270Z,85.80
2018-12-07T07:51:31.803Z,85.80
2018-12-07T07:54:00.335Z,85.90
2018-12-07T07:56:29.519Z,85.70
2018-12-07T07:58:58.081Z,85.70
2018-12-07T08:01:26.611Z,85.60
2018-12-07T08:03:55.194Z,85.60
2018-12-07T08:06:23.766Z,85.40
2018-12-07T08:08:53.046Z,85.30
2018-12-07T08:11:21.618Z,85.40
2018-12-07T08:13:50.198Z,85.40
2018-12-07T08:16:18.750Z,85.30
2018-12-07T08:18:47.298Z,85.30
2018-12-07T08:21:15.970Z,85.20
2018-12-07T08:23:44.522Z,85.00
2018-12-07T08:26:13.187Z,85.00
2018-12-07T08:28:41.787Z,84.90
2018-12-07T08:31:10.768Z,85.00
2018-12-07T08:33:39.316Z,84.90
2018-12-07T08:36:07.862Z,84.70
2018-12-07T08:38:36.728Z,84.60
2018-12-07T08:41:05.563Z,84.50
2018-12-07T08:43:34.131Z,84.40
2018-12-07T08:46:02.937Z,84.30
2018-12-07T08:48:31.490Z,84.10
2018-12-07T08:51:00.046Z,84.00
2018-12-07T08:53:28.877Z,83.80
2018-12-07T08:55:57.435Z,83.70
2018-12-07T08:58:25.994Z,83.50
2018-12-07T09:00:54.579Z,83.50
2018-12-07T09:03:23.119Z,83.40
2018-12-07T09:05:51.902Z,83.30
2018-12-07T09:08:20.690Z,83.20
2018-12-07T09:10:49.234Z,82.90
2018-12-07T09:13:17.751Z,82.50
2018-12-07T09:15:46.310Z,82.10
2018-12-07T09:18:14.843Z,82.10
2018-12-07T09:20:43.398Z,82.70
2018-12-07T09:23:11.962Z,81.70
2018-12-07T09:25:40.531Z,81.50
2018-12-07T09:28:09.083Z,82.00
2018-12-07T09:30:37.614Z,81.30
2018-12-07T09:33:06.191Z,80.90
2018-12-07T09:35:34.743Z,80.40
2018-12-07T09:38:03.289Z,80.20
2018-12-07T09:40:31.838Z,80.00
2018-12-07T09:43:00.386Z,79.80
2018-12-07T09:45:28.973Z,79.90
2018-12-07T09:47:57.498Z,79.90
2018-12-07T09:50:26.043Z,79.90
2018-12-07T09:52:54.589Z,79.70
2018-12-07T09:55:23.118Z,79.60
2018-12-07T09:57:51.678Z,79.30
2018-12-07T10:00:20.237Z,79.00
2018-12-07T10:02:49.158Z,78.80
2018-12-07T10:05:17.680Z,78.60
2018-12-07T10:07:46.442Z,78.80
2018-12-07T10:10:14.973Z,78.90
2018-12-07T10:12:43.542Z,79.20
2018-12-07T10:15:12.247Z,79.50
2018-12-07T10:17:40.779Z,79.40
2018-12-07T10:20:09.570Z,79.60
2018-12-07T10:22:38.099Z,80.00
2018-12-07T10:25:06.754Z,79.90
2018-12-07T10:27:35.302Z,79.90
2018-12-07T10:30:04.462Z,79.80
2018-12-07T10:32:33.031Z,79.90
2018-12-07T10:35:01.604Z,79.60
2018-12-07T10:37:30.124Z,79.40
2018-12-07T10:39:58.663Z,79.30
2018-12-07T10:42:27.214Z,79.20
2018-12-07T10:44:55.835Z,78.90
2018-12-07T10:47:24.373Z,79.00
2018-12-07T10:49:52.919Z,78.90
2018-12-07T10:52:21.853Z,78.90
2018-12-07T10:54:50.442Z,78.80
2018-12-07T10:57:18.990Z,78.70
2018-12-07T10:59:47.525Z,78.50
2018-12-07T11:02:21.408Z,78.20
2018-12-07T11:04:55.242Z,77.90
2018-12-07T11:07:29.159Z,77.80
2018-12-07T11:10:03.142Z,77.60
2018-12-07T11:14:43.686Z,77.50
2018-12-07T11:17:17.516Z,77.00
2018-12-07T11:19:51.338Z,76.40
2018-12-07T11:22:25.118Z,76.20
2018-12-07T11:24:58.906Z,76.20
2018-12-07T11:27:32.735Z,76.10
2018-12-07T11:30:06.535Z,76.20
2018-12-07T11:32:39.407Z,76.10
2018-12-07T11:35:10.903Z,75.80
2018-12-07T11:37:39.462Z,75.60
2018-12-07T11:40:08.511Z,75.40
2018-12-07T11:42:37.056Z,75.50
2018-12-07T11:45:05.722Z,75.40
2018-12-07T11:47:34.349Z,75.20
2018-12-07T11:50:03.978Z,75.20
2018-12-07T11:52:32.571Z,74.70
2018-12-07T11:55:01.130Z,74.70
2018-12-07T11:57:29.665Z,74.50
2018-12-07T11:59:58.312Z,74.50
2018-12-07T12:02:26.894Z,74.50
2018-12-07T12:04:55.506Z,74.30
2018-12-07T12:07:24.115Z,74.20
2018-12-07T12:09:52.663Z,74.40
2018-12-07T12:12:21.423Z,74.40
2018-12-07T12:14:49.988Z,74.20
2018-12-07T12:17:18.548Z,73.80
2018-12-07T12:19:47.105Z,73.70
2018-12-07T12:22:15.651Z,73.60
2018-12-07T12:24:44.202Z,73.30
2018-12-07T12:27:12.734Z,73.40
2018-12-07T12:29:41.389Z,73.40
2018-12-07T12:32:09.988Z,73.10
2018-12-07T12:34:38.598Z,72.90
2018-12-07T12:37:07.171Z,73.00
2018-12-07T12:39:35.838Z,72.80
2018-12-07T12:42:04.374Z,72.60
2018-12-07T12:44:32.945Z,72.60
2018-12-07T12:47:01.495Z,72.20
2018-12-07T12:49:30.027Z,71.90
2018-12-07T12:51:58.561Z,71.70
2018-12-07T12:54:27.106Z,71.40
2018-12-07T12:56:55.885Z,71.60
2018-12-07T12:59:24.442Z,71.30
2018-12-07T13:01:53.035Z,71.70
2018-12-07T13:04:21.593Z,71.60
2018-12-07T13:06:50.139Z,71.50
2018-12-07T13:09:18.695Z,71.50
2018-12-07T13:11:48.151Z,71.50
2018-12-07T13:14:16.674Z,71.30
2018-12-07T13:16:45.223Z,71.50
2018-12-07T13:19:13.759Z,71.50
2018-12-07T13:21:42.299Z,71.60
2018-12-07T13:24:11.067Z,71.50
2018-12-07T13:26:39.698Z,71.70
2018-12-07T13:29:08.223Z,71.80
2018-12-07T13:31:36.806Z,71.90
2018-12-07T13:34:05.369Z,72.60
2018-12-07T13:36:33.946Z,71.90
2018-12-07T13:39:03.461Z,72.20
2018-12-07T13:41:32.029Z,72.40
2018-12-07T13:44:00.816Z,72.90
2018-12-07T13:46:29.423Z,72.60
2018-12-07T13:48:58.099Z,72.40
2018-12-07T13:51:26.878Z,72.40
2018-12-07T13:53:55.559Z,72.50
2018-12-07T13:56:24.690Z,72.40
2018-12-07T13:58:53.458Z,72.20
2018-12-07T14:01:22.297Z,72.00
2018-12-07T14:03:51.012Z,71.90
2018-12-07T14:06:19.819Z,72.30
2018-12-07T14:08:48.736Z,72.40
2018-12-07T14:11:17.647Z,72.10
2018-12-07T14:13:46.342Z,72.20
2018-12-07T14:16:15.140Z,72.10
2018-12-07T14:18:43.899Z,72.40
2018-12-07T14:21:12.604Z,72.60
2018-12-07T14:23:41.350Z,72.60
2018-12-07T14:26:10.346Z,72.80
2018-12-07T14:28:39.037Z,73.10
2018-12-07T14:31:07.663Z,73.30
2018-12-07T14:33:36.485Z,73.70
2018-12-07T14:36:05.663Z,74.20
2018-12-07T14:38:34.378Z,74.50
2018-12-07T14:41:03.174Z,74.70
2018-12-07T14:43:31.944Z,74.80
2018-12-07T14:46:00.574Z,75.00
2018-12-07T14:48:29.232Z,75.20
2018-12-07T14:50:57.781Z,75.40
2018-12-07T14:53:26.386Z,75.60
2018-12-07T14:55:55.893Z,75.80
2018-12-07T14:58:24.530Z,76.00
2018-12-07T15:00:53.209Z,76.00
2018-12-07T15:03:22.225Z,76.20
2018-12-07T15:05:50.965Z,76.20
2018-12-07T15:08:19.773Z,76.30
2018-12-07T15:10:48.448Z,76.40
2018-12-07T15:13:17.353Z,76.60
2018-12-07T15:15:46.283Z,76.80
2018-12-07T15:18:14.922Z,76.90
2018-12-07T15:20:43.768Z,76.90
2018-12-07T15:23:12.317Z,77.10
2018-12-07T15:25:41.003Z,77.30
2018-12-07T15:28:09.717Z,77.70
2018-12-07T15:30:38.636Z,78.10
2018-12-07T15:33:07.512Z,78.40
2018-12-07T15:35:36.315Z,78.80
2018-12-07T15:38:05.152Z,79.10
2018-12-07T15:40:33.942Z,79.50
2018-12-07T15:43:02.895Z,79.70
2018-12-07T15:45:32.064Z,80.10
2018-12-07T15:48:01.108Z,80.40
2018-12-07T15:50:29.956Z,80.70
2018-12-07T15:52:58.617Z,81.00
2018-12-07T15:55:27.174Z,81.30
2018-12-07T15:57:55.885Z,81.40
2018-12-07T16:00:24.962Z,81.60
2018-12-07T16:02:53.740Z,81.80
2018-12-07T16:05:22.455Z,81.90
2018-12-07T16:07:51.252Z,81.90
2018-12-07T16:10:20.093Z,81.90
2018-12-07T16:12:48.990Z,82.00
2018-12-07T16:15:17.700Z,82.00
2018-12-07T16:17:48.227Z,82.00
2018-12-07T16:20:18.710Z,81.90
2018-12-07T16:22:47.373Z,81.90
2018-12-07T16:25:16.383Z,81.90
2018-12-07T16:27:45.203Z,81.90
2018-12-07T16:30:13.784Z,81.90
2018-12-07T16:32:42.569Z,82.00
2018-12-07T16:35:11.355Z,82.10
2018-12-07T16:37:39.983Z,82.40
2018-12-07T16:40:09.498Z,82.50
2018-12-07T16:42:38.119Z,82.60
2018-12-07T16:45:06.944Z,82.80
2018-12-07T16:47:35.791Z,82.90
2018-12-07T16:50:05.642Z,83.00
2018-12-07T16:52:34.386Z,83.00
2018-12-07T16:55:02.993Z,83.00
2018-12-07T16:57:31.841Z,83.00
2018-12-07T17:00:00.662Z,83.10
2018-12-07T17:02:29.460Z,83.20
2018-12-07T17:04:58.195Z,83.30
2018-12-07T17:07:26.860Z,83.30
2018-12-07T17:09:55.720Z,83.30
2018-12-07T17:12:24.864Z,83.30
2018-12-07T17:14:53.754Z,83.30
2018-12-07T17:17:22.422Z,83.30
2018-12-07T17:19:51.138Z,83.40
2018-12-07T17:22:20.006Z,83.60
2018-12-07T17:24:49.225Z,83.50
2018-12-07T17:27:18.042Z,83.40
2018-12-07T17:29:46.964Z,83.40
2018-12-07T17:32:15.866Z,83.40
2018-12-07T17:34:44.473Z,83.40
2018-12-07T17:37:13.070Z,83.40
2018-12-07T17:39:41.757Z,83.50
2018-12-07T17:42:10.381Z,83.40
2018-12-07T17:44:39.166Z,83.30
2018-12-07T17:47:07.883Z,83.20
2018-12-07T17:49:36.749Z,83.20
2018-12-07T17:52:06.019Z,83.10
2018-12-07T17:54:34.947Z,83.20
2018-12-07T17:57:03.794Z,83.30
2018-12-07T17:59:32.629Z,83.50
2018-12-07T18:02:01.309Z,83.70
2018-12-07T18:04:30.680Z,83.80
2018-12-07T18:06:59.475Z,83.90
2018-12-07T18:09:28.197Z,83.90
2018-12-07T18:11:57.193Z,84.00
2018-12-07T18:14:27.001Z,83.90
2018-12-07T18:16:55.945Z,83.80
2018-12-07T18:19:24.638Z,83.70
2018-12-07T18:21:53.663Z,83.70
2018-12-07T18:24:23.376Z,83.60
2018-12-07T18:26:52.251Z,83.70
2018-12-07T18:29:21.006Z,83.70
2018-12-07T18:31:49.700Z,83.60
2018-12-07T18:34:18.400Z,83.50
2018-12-07T18:36:47.109Z,83.40
2018-12-07T18:39:16.509Z,83.40
2018-12-07T18:41:45.367Z,83.50
2018-12-07T18:44:13.996Z,83.70
2018-12-07T18:46:43.319Z,83.70
2018-12-07T18:49:12.244Z,83.80
2018-12-07T18:51:41.125Z,83.80
2018-12-07T18:54:10.328Z,83.80
2018-12-07T18:56:39.145Z,83.80
2018-12-07T18:59:08.205Z,83.90
2018-12-07T19:01:36.850Z,84.00
2018-12-07T19:04:05.993Z,84.10
2018-12-07T19:06:35.381Z,84.20
2018-12-07T19:09:07.196Z,84.30
2018-12-07T19:11:36.236Z,84.30
2018-12-07T19:14:05.108Z,84.30
2018-12-07T19:16:35.779Z,84.30
2018-12-07T19:19:05.519Z,84.30
2018-12-07T19:21:34.238Z,84.30
2018-12-07T19:24:03.160Z,84.30
2018-12-07T19:26:32.420Z,84.20
2018-12-07T19:29:01.904Z,84.10
2018-12-07T19:31:31.379Z,84.00
2018-12-07T19:34:00.690Z,83.80
2018-12-07T19:36:29.728Z,83.70
2018-12-07T19:38:58.578Z,83.60
2018-12-07T19:41:27.762Z,83.70
2018-12-07T19:43:56.414Z,83.70
2018-12-07T19:46:25.163Z,83.70
2018-12-07T19:48:53.854Z,83.80
2018-12-07T19:51:22.525Z,83.70
2018-12-07T19:53:51.257Z,83.70
2018-12-07T19:56:20.136Z,83.40
2018-12-07T19:58:48.782Z,83.40
2018-12-07T20:01:17.370Z,83.30
2018-12-07T20:03:46.206Z,83.30
2018-12-07T20:06:14.943Z,83.50
2018-12-07T20:08:44.115Z,83.70
2018-12-07T20:11:12.773Z,84.00
2018-12-07T20:13:42.313Z,84.20
2018-12-07T20:16:11.154Z,84.50
2018-12-07T20:18:39.834Z,84.70
2018-12-07T20:21:08.653Z,85.00
2018-12-07T20:23:37.440Z,85.20
2018-12-07T20:26:06.058Z,85.40
2018-12-07T20:28:34.605Z,85.60
2018-12-07T20:31:03.146Z,85.80
2018-12-07T20:33:31.874Z,86.10
2018-12-07T20:36:00.677Z,86.00
2018-12-07T20:38:29.556Z,86.30
2018-12-07T20:40:58.163Z,86.30
2018-12-07T20:43:26.870Z,86.60
2018-12-07T20:45:55.625Z,86.70
2018-12-07T20:48:24.283Z,86.60
2018-12-07T20:50:52.966Z,86.30
2018-12-07T20:53:21.762Z,86.20
2018-12-07T20:55:50.454Z,86.10
2018-12-07T20:58:19.305Z,86.10
2018-12-07T21:00:48.007Z,86.10
2018-12-07T21:03:16.746Z,86.00
2018-12-07T21:09:34.190Z,86.00
2018-12-07T21:12:37.992Z,86.00
2018-12-07T21:15:06.945Z,85.60
2018-12-07T21:17:37.595Z,85.40
2018-12-07T21:20:26.771Z,85.40
2018-12-07T21:22:55.370Z,85.30
2018-12-07T21:25:24.410Z,85.20
2018-12-07T21:27:53.096Z,85.30
2018-12-07T21:30:50.847Z,85.20
2018-12-07T21:33:27.358Z,85.10
2018-12-07T21:36:28.512Z,84.80
2018-12-07T21:38:57.352Z,84.90
2018-12-07T21:41:26.272Z,84.80
2018-12-07T21:43:54.862Z,84.70
2018-12-07T21:46:23.886Z,84.70
2018-12-07T21:48:52.694Z,84.60
2018-12-07T21:51:43.933Z,84.60
2018-12-07T21:54:13.140Z,84.30
2018-12-07T21:56:41.908Z,84.10
2018-12-07T21:59:10.528Z,83.70
2018-12-07T22:01:39.574Z,83.70
2018-12-07T22:04:08.294Z,83.60
2018-12-07T22:06:36.981Z,83.50
2018-12-07T22:09:07.192Z,83.60
2018-12-07T22:11:35.870Z,83.70
2018-12-07T22:14:04.862Z,84.00
2018-12-07T22:16:33.720Z,84.40
2018-12-07T22:19:02.706Z,84.60
2018-12-07T22:21:31.723Z,84.60
2018-12-07T22:24:07.374Z,85.30
2018-12-07T22:26:36.079Z,86.80
2018-12-07T22:29:05.111Z,85.90
2018-12-07T22:31:34.160Z,85.60
2018-12-07T22:34:03.161Z,85.00
2018-12-07T22:36:32.353Z,84.80
2018-12-07T22:39:01.449Z,84.30
2018-12-07T22:41:30.434Z,84.20
2018-12-07T22:43:59.120Z,83.40
2018-12-07T22:46:27.738Z,83.40
2018-12-07T22:48:56.473Z,83.50
2018-12-07T22:51:25.209Z,82.60
2018-12-07T22:53:54.190Z,81.30
2018-12-07T22:56:23.179Z,81.10
2018-12-07T22:58:51.941Z,80.30
2018-12-07T23:01:20.794Z,79.70
2018-12-07T23:03:49.527Z,79.70
2018-12-07T23:06:18.587Z,79.60
2018-12-07T23:08:47.736Z,79.00
2018-12-07T23:11:16.626Z,79.00
2018-12-07T23:13:45.703Z,78.90
2018-12-07T23:16:14.363Z,79.20
2018-12-07T23:18:43.605Z,78.80
2018-12-07T23:21:12.332Z,79.40
2018-12-07T23:23:41.499Z,78.90
2018-12-07T23:26:10.323Z,79.10
2018-12-07T23:28:39.023Z,78.90
2018-12-07T23:31:09.004Z,79.40
2018-12-07T23:33:37.774Z,79.40
2018-12-07T23:36:06.335Z,79.40
2018-12-07T23:38:34.876Z,79.50
2018-12-07T23:41:03.448Z,79.50
2018-12-07T23:43:32.119Z,79.60
2018-12-07T23:46:00.676Z,79.70
2018-12-07T23:48:29.258Z,79.70
2018-12-07T23:50:57.826Z,79.80
2018-12-07T23:53:26.734Z,80.00
2018-12-07T23:55:55.289Z,79.40
2018-12-07T23:58:23.849Z,79.10
